createdAt,value
2022-09-15T00:01:18.371Z,23.15
2022-09-15T00:03:51.223Z,22.10
2022-09-15T00:06:22.807Z,21.83
2022-09-15T00:08:54.614Z,23.15
2022-09-15T00:11:27.741Z,24.13
2022-09-15T00:14:00.899Z,24.29
2022-09-15T00:16:33.595Z,23.21
2022-09-15T00:19:05.787Z,22.15
2022-09-15T00:21:39.870Z,21.86
2022-09-15T00:24:11.474Z,23.10
2022-09-15T00:26:43.079Z,24.00
2022-09-15T00:29:15.456Z,24.07
2022-09-15T00:31:46.995Z,22.95
2022-09-15T00:34:18.461Z,21.86
2022-09-15T00:36:50.124Z,21.52
2022-09-15T00:39:21.728Z,22.70
2022-09-15T00:41:53.236Z,23.58
2022-09-15T00:44:53.672Z,24.02
2022-09-15T00:47:28.321Z,23.82
2022-09-15T00:50:04.205Z,22.56
2022-09-15T00:52:41.043Z,21.96
2022-09-15T00:55:17.724Z,23.05
2022-09-15T00:57:53.468Z,23.90
2022-09-15T01:00:27.615Z,24.07
2022-09-15T01:03:00.047Z,23.01
2022-09-15T01:05:37.314Z,21.98
2022-09-15T01:08:12.532Z,21.78
2022-09-15T01:10:46.586Z,23.15
2022-09-15T01:13:18.091Z,24.04
2022-09-15T01:16:01.602Z,24.13
2022-09-15T01:18:41.738Z,22.94
2022-09-15T01:21:24.567Z,22.34
2022-09-15T01:24:43.994Z,23.53
2022-09-15T01:27:52.823Z,24.56
2022-09-15T01:30:24.734Z,23.96
2022-09-15T01:33:23.227Z,22.77
2022-09-15T01:36:04.360Z,22.28
2022-09-15T01:38:45.037Z,23.46
2022-09-15T01:41:19.609Z,24.20
2022-09-15T01:43:56.780Z,24.16
2022-09-15T01:46:31.554Z,22.97
2022-09-15T01:49:04.983Z,21.90
2022-09-15T01:51:37.695Z,21.69
2022-09-15T01:54:12.268Z,22.96
2022-09-15T01:56:45.233Z,23.90
2022-09-15T01:59:17.123Z,24.10
2022-09-15T02:01:52.793Z,23.07
2022-09-15T02:04:31.588Z,22.01
2022-09-15T02:07:11.957Z,21.82
2022-09-15T02:09:52.138Z,23.24
2022-09-15T02:12:34.273Z,24.14
2022-09-15T02:15:10.709Z,24.15
2022-09-15T02:17:47.229Z,22.90
2022-09-15T02:20:23.690Z,22.22
2022-09-15T02:23:01.874Z,23.26
2022-09-15T02:25:39.379Z,24.16
2022-09-15T02:28:15.067Z,24.26
2022-09-15T02:30:48.525Z,23.06
2022-09-15T02:33:24.549Z,21.98
2022-09-15T02:35:56.754Z,21.77
2022-09-15T02:38:31.521Z,23.03
2022-09-15T02:41:03.740Z,23.97
2022-09-15T02:43:35.327Z,24.17
2022-09-15T02:46:07.165Z,23.15
2022-09-15T02:48:39.362Z,22.12
2022-09-15T02:51:11.111Z,21.87
2022-09-15T02:53:44.555Z,23.17
2022-09-15T02:56:18.236Z,24.15
2022-09-15T02:58:49.808Z,24.32
2022-09-15T03:01:21.515Z,23.21
2022-09-15T03:03:53.187Z,22.18
2022-09-15T03:06:27.912Z,21.93
2022-09-15T03:09:00.285Z,23.23
2022-09-15T03:11:32.681Z,24.18
2022-09-15T03:14:06.751Z,24.31
2022-09-15T03:16:38.411Z,23.22
2022-09-15T03:19:10.010Z,22.16
2022-09-15T03:21:41.554Z,21.82
2022-09-15T03:24:15.310Z,22.95
2022-09-15T03:26:46.907Z,23.69
2022-09-15T03:29:18.432Z,23.43
2022-09-15T03:31:50.054Z,21.94
2022-09-15T03:34:21.886Z,21.63
2022-09-15T03:36:53.477Z,22.19
2022-09-15T03:39:25.025Z,22.38
2022-09-15T03:41:56.693Z,22.84
2022-09-15T03:44:28.329Z,23.24
2022-09-15T03:46:59.920Z,23.19
2022-09-15T03:49:31.619Z,22.08
2022-09-15T03:52:04.879Z,21.36
2022-09-15T03:54:36.461Z,22.32
2022-09-15T03:57:08.174Z,23.08
2022-09-15T03:59:39.685Z,23.23
2022-09-15T04:02:11.328Z,22.14
2022-09-15T04:04:43.124Z,21.31
2022-09-15T04:07:14.711Z,22.04
2022-09-15T04:09:46.427Z,22.81
2022-09-15T04:12:18.180Z,23.23
2022-09-15T04:14:49.800Z,23.16
2022-09-15T04:17:22.074Z,21.99
2022-09-15T04:19:53.572Z,21.25
2022-09-15T04:22:25.284Z,22.20
2022-09-15T04:24:56.775Z,23.04
2022-09-15T04:27:28.983Z,23.39
2022-09-15T04:30:00.546Z,23.28
2022-09-15T04:32:32.450Z,22.09
2022-09-15T04:35:04.824Z,21.34
2022-09-15T04:37:36.374Z,22.25
2022-09-15T04:40:12.095Z,23.01
2022-09-15T04:42:43.681Z,23.37
2022-09-15T04:45:15.192Z,23.21
2022-09-15T04:47:48.436Z,21.96
2022-09-15T04:50:20.025Z,21.14
2022-09-15T04:52:52.117Z,21.78
2022-09-15T04:55:23.716Z,22.53
2022-09-15T04:57:56.312Z,22.88
2022-09-15T05:00:27.846Z,23.20
2022-09-15T05:03:00.861Z,23.06
2022-09-15T05:05:34.661Z,21.74
2022-09-15T05:08:06.780Z,20.94
2022-09-15T05:10:39.142Z,21.87
2022-09-15T05:13:10.630Z,22.33
2022-09-15T05:15:42.151Z,22.53
2022-09-15T05:18:13.903Z,22.90
2022-09-15T05:20:45.329Z,23.24
2022-09-15T05:23:16.782Z,23.14
2022-09-15T05:25:56.972Z,21.91
2022-09-15T05:28:29.257Z,21.15
2022-09-15T05:31:00.782Z,21.99
2022-09-15T05:33:32.528Z,22.68
2022-09-15T05:36:05.047Z,23.05
2022-09-15T05:38:38.765Z,22.86
2022-09-15T05:41:11.606Z,21.63
2022-09-15T05:43:43.043Z,20.89
2022-09-15T05:46:13.494Z,21.76
2022-09-15T05:48:45.811Z,22.45
2022-09-15T05:51:17.324Z,22.87
2022-09-15T05:53:48.969Z,23.07
2022-09-15T05:56:20.965Z,22.95
2022-09-15T05:58:52.549Z,21.75
2022-09-15T06:01:26.647Z,21.00
2022-09-15T06:03:59.406Z,21.85
2022-09-15T06:06:33.380Z,22.48
2022-09-15T06:09:07.736Z,22.78
2022-09-15T06:11:42.757Z,22.86
2022-09-15T06:14:17.119Z,22.10
2022-09-15T06:16:50.327Z,21.26
2022-09-15T06:19:22.772Z,21.93
2022-09-15T06:21:55.311Z,22.53
2022-09-15T06:24:28.690Z,22.60
2022-09-15T06:29:41.514Z,22.67
2022-09-15T06:32:13.834Z,21.55
2022-09-15T06:34:46.128Z,20.82
2022-09-15T06:37:17.991Z,21.73
2022-09-15T06:39:49.772Z,22.52
2022-09-15T06:42:22.423Z,22.99
2022-09-15T06:44:54.014Z,23.32
2022-09-15T06:47:25.723Z,23.30
2022-09-15T06:49:57.291Z,22.12
2022-09-15T06:52:28.790Z,21.35
2022-09-15T06:55:00.365Z,22.09
2022-09-15T06:57:31.893Z,22.80
2022-09-15T07:00:05.709Z,23.19
2022-09-15T07:02:37.599Z,23.43
2022-09-15T07:05:10.857Z,23.00
2022-09-15T07:07:42.488Z,21.76
2022-09-15T07:10:14.091Z,21.08
2022-09-15T07:12:46.158Z,21.87
2022-09-15T07:15:17.861Z,22.59
2022-09-15T07:17:49.335Z,22.79
2022-09-15T07:20:20.871Z,23.12
2022-09-15T07:22:52.330Z,23.37
2022-09-15T07:25:23.783Z,23.18
2022-09-15T07:27:55.416Z,22.08
2022-09-15T07:30:26.912Z,21.45
2022-09-15T07:32:58.338Z,22.38
2022-09-15T07:35:29.840Z,23.27
2022-09-15T07:38:02.093Z,23.73
2022-09-15T07:40:34.463Z,23.67
2022-09-15T07:43:06.195Z,22.48
2022-09-15T07:45:38.410Z,21.74
2022-09-15T07:48:10.149Z,22.47
2022-09-15T07:50:41.637Z,23.28
2022-09-15T07:53:13.074Z,23.78
2022-09-15T07:55:44.526Z,23.80
2022-09-15T07:58:15.950Z,22.74
2022-09-15T08:00:47.851Z,21.99
2022-09-15T08:03:19.648Z,22.73
2022-09-15T08:05:51.164Z,23.38
2022-09-15T08:08:22.615Z,23.78
2022-09-15T08:10:54.142Z,23.68
2022-09-15T08:13:25.631Z,22.60
2022-09-15T08:15:57.178Z,21.97
2022-09-15T08:18:28.937Z,22.93
2022-09-15T08:21:00.438Z,23.76
2022-09-15T08:23:31.862Z,23.84
2022-09-15T08:26:03.579Z,22.76
2022-09-15T08:28:35.110Z,21.76
2022-09-15T08:31:08.771Z,22.29
2022-09-15T08:33:45.229Z,23.15
2022-09-15T08:36:17.643Z,23.61
2022-09-15T08:38:49.560Z,23.68
2022-09-15T08:41:25.370Z,22.64
2022-09-15T08:44:02.931Z,22.02
2022-09-15T08:46:40.994Z,22.97
2022-09-15T08:49:30.605Z,23.87
2022-09-15T08:52:12.465Z,24.02
2022-09-15T08:54:44.378Z,22.98
2022-09-15T08:57:20.837Z,22.10
2022-09-15T08:59:54.433Z,21.97
2022-09-15T09:03:04.047Z,23.32
2022-09-15T09:05:47.672Z,23.97
2022-09-15T09:08:46.600Z,23.02
2022-09-15T09:11:26.376Z,22.01
2022-09-15T09:14:08.433Z,21.88
2022-09-15T09:16:59.285Z,23.22
2022-09-15T09:19:52.753Z,24.21
2022-09-15T09:22:28.623Z,24.25
2022-09-15T09:25:11.518Z,23.16
2022-09-15T09:27:54.234Z,22.12
2022-09-15T09:30:28.669Z,21.91
2022-09-15T09:33:13.589Z,23.05
2022-09-15T09:35:48.268Z,24.08
2022-09-15T09:38:22.632Z,24.32
2022-09-15T09:40:57.487Z,23.38
2022-09-15T09:43:32.283Z,22.42
2022-09-15T09:46:03.850Z,22.15
2022-09-15T09:48:37.226Z,23.36
2022-09-15T09:51:32.666Z,24.38
2022-09-15T09:54:21.308Z,24.53
2022-09-15T09:56:54.283Z,23.48
2022-09-15T09:59:36.389Z,22.69
2022-09-15T10:02:17.038Z,22.63
2022-09-15T10:04:50.973Z,24.03
2022-09-15T10:07:25.801Z,24.63
2022-09-15T10:09:59.557Z,23.81
2022-09-15T10:12:34.965Z,22.91
2022-09-15T10:15:20.507Z,22.69
2022-09-15T10:17:52.932Z,24.00
2022-09-15T10:20:32.750Z,24.87
2022-09-15T10:23:28.920Z,24.42
2022-09-15T10:26:22.006Z,23.37
2022-09-15T10:29:14.245Z,22.60
2022-09-15T10:31:46.814Z,22.66
2022-09-15T10:34:32.320Z,23.98
2022-09-15T10:37:15.038Z,24.71
2022-09-15T10:39:54.796Z,23.93
2022-09-15T10:42:38.816Z,23.19
2022-09-15T10:45:23.456Z,22.69
2022-09-15T10:48:11.038Z,22.24
2022-09-15T10:50:54.525Z,22.54
2022-09-15T10:53:44.982Z,24.10
2022-09-15T10:56:26.943Z,24.73
2022-09-15T10:59:20.899Z,23.95
2022-09-15T11:02:04.153Z,23.17
2022-09-15T11:05:00.701Z,22.61
2022-09-15T11:07:42.186Z,22.68
2022-09-15T11:10:23.456Z,24.08
2022-09-15T11:13:04.535Z,24.66
2022-09-15T11:15:54.758Z,23.82
2022-09-15T11:18:51.459Z,22.96
2022-09-15T11:21:30.665Z,22.29
2022-09-15T11:24:21.349Z,22.29
2022-09-15T11:26:58.860Z,23.78
2022-09-15T11:29:35.621Z,24.41
2022-09-15T11:32:17.521Z,23.54
2022-09-15T11:34:57.332Z,22.48
2022-09-15T11:37:36.918Z,22.20
2022-09-15T11:40:18.288Z,23.34
2022-09-15T11:43:00.777Z,24.14
2022-09-15T11:45:41.609Z,24.23
2022-09-15T11:48:19.210Z,23.13
2022-09-15T11:50:55.722Z,22.18
2022-09-15T11:53:35.099Z,21.97
2022-09-15T11:56:16.130Z,23.10
2022-09-15T11:59:02.843Z,23.94
2022-09-15T12:01:42.175Z,24.02
2022-09-15T12:04:19.504Z,22.87
2022-09-15T12:06:57.208Z,22.29
2022-09-15T12:09:29.562Z,23.45
2022-09-15T12:12:08.166Z,24.26
2022-09-15T12:14:44.546Z,24.31
2022-09-15T12:17:26.731Z,23.22
2022-09-15T12:20:04.282Z,22.20
2022-09-15T12:22:42.831Z,21.95
2022-09-15T12:25:20.800Z,23.16
2022-09-15T12:28:23.852Z,24.11
2022-09-15T12:31:18.775Z,24.31
2022-09-15T12:33:56.835Z,23.11
2022-09-15T12:36:38.945Z,22.20
2022-09-15T12:39:37.742Z,22.03
2022-09-15T12:42:20.436Z,23.43
2022-09-15T12:44:59.173Z,24.27
2022-09-15T12:47:35.045Z,24.28
2022-09-15T12:50:26.867Z,23.08
2022-09-15T12:53:02.068Z,21.88
2022-09-15T12:55:37.439Z,22.33
2022-09-15T12:58:18.289Z,23.25
2022-09-15T13:01:14.289Z,23.85
2022-09-15T13:04:29.863Z,23.73
2022-09-15T13:07:39.262Z,22.23
2022-09-15T13:10:36.603Z,22.00
2022-09-15T13:13:21.598Z,23.31
2022-09-15T13:15:56.317Z,24.02
2022-09-15T13:18:33.342Z,24.05
2022-09-15T13:21:11.113Z,22.95
2022-09-15T13:23:48.041Z,21.91
2022-09-15T13:26:24.022Z,21.66
2022-09-15T13:28:56.559Z,22.89
2022-09-15T13:31:39.918Z,23.84
2022-09-15T13:38:12.174Z,22.56
2022-09-15T13:41:24.453Z,22.35
2022-09-15T13:44:32.263Z,23.75
2022-09-15T13:47:16.128Z,23.93
2022-09-15T13:49:52.385Z,22.76
2022-09-15T13:53:05.729Z,21.78
2022-09-15T13:55:39.392Z,21.72
2022-09-15T14:01:08.618Z,23.58
2022-09-15T14:03:44.539Z,23.63
2022-09-15T14:06:18.883Z,22.59
2022-09-15T14:08:57.074Z,21.60
2022-09-15T14:11:32.283Z,21.39
2022-09-15T14:14:07.256Z,22.62
2022-09-15T14:16:39.781Z,23.48
2022-09-15T14:19:33.521Z,24.01
2022-09-15T14:22:26.059Z,23.97
2022-09-15T14:24:59.276Z,22.74
2022-09-15T14:27:33.916Z,21.77
2022-09-15T14:30:12.089Z,21.53
2022-09-15T14:32:52.137Z,22.75
2022-09-15T14:35:26.980Z,23.67
2022-09-15T14:38:00.379Z,23.78
2022-09-15T14:40:36.727Z,22.68
2022-09-15T14:43:26.905Z,21.55
2022-09-15T14:46:10.166Z,21.27
2022-09-15T14:48:41.637Z,22.62
2022-09-15T14:51:20.544Z,23.35
2022-09-15T14:53:56.074Z,23.46
2022-09-15T14:56:31.440Z,22.40
2022-09-15T14:59:08.417Z,21.41
2022-09-15T15:01:58.749Z,21.24
2022-09-15T15:04:36.685Z,22.67
2022-09-15T15:07:17.011Z,23.57
2022-09-15T15:09:51.481Z,23.63
2022-09-15T15:12:27.966Z,22.54
2022-09-15T15:15:00.796Z,21.54
2022-09-15T15:17:41.911Z,21.35
2022-09-15T15:20:23.045Z,22.86
2022-09-15T15:23:15.366Z,23.78
2022-09-15T15:25:47.827Z,23.68
2022-09-15T15:28:33.861Z,22.49
2022-09-15T15:31:13.975Z,21.37
2022-09-15T15:33:50.927Z,21.13
2022-09-15T15:36:24.984Z,22.58
2022-09-15T15:39:09.428Z,23.59
2022-09-15T15:41:43.082Z,23.70
2022-09-15T15:44:29.003Z,22.61
2022-09-15T15:47:03.337Z,21.55
2022-09-15T15:49:36.788Z,21.30
2022-09-15T15:52:10.752Z,22.60
2022-09-15T15:54:43.207Z,23.59
2022-09-15T15:57:28.163Z,23.76
2022-09-15T16:00:00.939Z,22.61
2022-09-15T16:02:33.142Z,21.63
2022-09-15T16:05:05.184Z,21.34
2022-09-15T16:07:37.073Z,22.50
2022-09-15T16:10:16.233Z,23.37
2022-09-15T16:12:48.164Z,23.49
2022-09-15T16:15:22.266Z,22.40
2022-09-15T16:17:54.001Z,21.30
2022-09-15T16:20:25.759Z,20.97
2022-09-15T16:22:57.690Z,22.16
2022-09-15T16:25:39.446Z,23.10
2022-09-15T16:28:12.203Z,23.35
2022-09-15T16:30:44.390Z,22.28
2022-09-15T16:33:18.004Z,21.22
2022-09-15T16:35:55.565Z,20.84
2022-09-15T16:38:28.876Z,21.97
2022-09-15T16:41:01.128Z,22.86
2022-09-15T16:43:33.482Z,23.08
2022-09-15T16:46:06.320Z,22.06
2022-09-15T16:48:37.956Z,21.02
2022-09-15T16:51:31.763Z,20.73
2022-09-15T16:54:03.952Z,22.07
2022-09-15T16:56:35.502Z,22.94
2022-09-15T16:59:07.430Z,23.12
2022-09-15T17:01:39.792Z,21.98
2022-09-15T17:04:16.444Z,20.79
2022-09-15T17:06:48.177Z,20.43
2022-09-15T17:09:20.566Z,21.59
2022-09-15T17:11:52.028Z,22.45
2022-09-15T17:14:23.657Z,22.92
2022-09-15T17:16:55.568Z,22.93
2022-09-15T17:19:27.147Z,21.85
2022-09-15T17:21:59.026Z,20.76
2022-09-15T17:24:30.698Z,20.39
2022-09-15T17:27:02.245Z,21.46
2022-09-15T17:29:33.714Z,22.38
2022-09-15T17:32:06.062Z,22.91
2022-09-15T17:34:39.192Z,22.88
2022-09-15T17:37:11.166Z,21.79
2022-09-15T17:39:43.285Z,20.71
2022-09-15T17:42:15.469Z,20.33
2022-09-15T17:44:46.973Z,21.40
2022-09-15T17:47:20.618Z,22.27
2022-09-15T17:49:54.147Z,22.78
2022-09-15T17:52:26.185Z,22.76
2022-09-15T17:54:58.469Z,21.65
2022-09-15T17:57:30.522Z,20.54
2022-09-15T18:00:02.338Z,20.11
2022-09-15T18:02:36.749Z,21.20
2022-09-15T18:05:17.642Z,22.09
2022-09-15T18:07:49.888Z,22.63
2022-09-15T18:10:22.518Z,22.59
2022-09-15T18:12:55.848Z,21.50
2022-09-15T18:15:31.602Z,20.45
2022-09-15T18:18:08.693Z,20.16
2022-09-15T18:20:41.628Z,21.38
2022-09-15T18:23:16.765Z,22.32
2022-09-15T18:25:49.262Z,22.44
2022-09-15T18:28:21.606Z,21.34
2022-09-15T18:30:56.688Z,20.28
2022-09-15T18:33:29.377Z,19.94
2022-09-15T18:36:01.538Z,21.02
2022-09-15T18:38:33.617Z,21.86
2022-09-15T18:41:10.135Z,22.30
2022-09-15T18:43:41.730Z,22.16
2022-09-15T18:46:13.280Z,20.97
2022-09-15T18:48:44.878Z,20.21
2022-09-15T18:51:24.090Z,21.06
2022-09-15T18:54:01.404Z,21.95
2022-09-15T18:56:33.068Z,22.09
2022-09-15T18:59:04.788Z,21.04
2022-09-15T19:01:37.008Z,20.32
2022-09-15T19:05:26.023Z,21.23
2022-09-15T19:08:19.552Z,22.31
2022-09-15T19:10:58.835Z,22.15
2022-09-15T19:13:31.573Z,20.88
2022-09-15T19:16:07.375Z,20.17
2022-09-15T19:18:39.899Z,21.12
2022-09-15T19:21:15.409Z,22.00
2022-09-15T19:23:47.671Z,22.09
2022-09-15T19:26:19.970Z,20.93
2022-09-15T19:28:54.590Z,20.16
2022-09-15T19:31:27.680Z,21.07
2022-09-15T19:33:59.691Z,21.89
2022-09-15T19:36:32.291Z,21.98
2022-09-15T19:39:04.332Z,20.87
2022-09-15T19:41:36.430Z,19.69
2022-09-15T19:44:10.668Z,19.25
2022-09-15T19:46:43.366Z,20.36
2022-09-15T19:49:16.443Z,21.25
2022-09-15T19:51:52.980Z,21.77
2022-09-15T19:54:26.210Z,21.72
2022-09-15T19:56:58.528Z,20.51
2022-09-15T19:59:31.883Z,19.82
2022-09-15T20:02:03.790Z,20.94
2022-09-15T20:04:40.874Z,21.82
2022-09-15T20:07:12.966Z,21.85
2022-09-15T20:09:45.263Z,20.62
2022-09-15T20:12:17.602Z,19.87
2022-09-15T20:14:49.419Z,20.89
2022-09-15T20:17:21.660Z,21.70
2022-09-15T20:19:53.758Z,21.79
2022-09-15T20:22:25.885Z,20.66
2022-09-15T20:24:57.768Z,19.57
2022-09-15T20:27:30.427Z,19.25
2022-09-15T20:30:02.742Z,20.41
2022-09-15T20:32:34.597Z,21.33
2022-09-15T20:35:08.873Z,21.84
2022-09-15T20:37:40.891Z,21.73
2022-09-15T20:40:14.606Z,20.54
2022-09-15T20:42:47.634Z,19.44
2022-09-15T20:45:19.433Z,19.12
2022-09-15T20:47:51.138Z,20.29
2022-09-15T20:50:22.858Z,21.23
2022-09-15T20:52:54.589Z,21.73
2022-09-15T20:55:26.466Z,21.68
2022-09-15T20:57:58.186Z,20.49
2022-09-15T21:00:33.751Z,19.33
2022-09-15T21:03:05.913Z,18.93
2022-09-15T21:05:37.605Z,20.10
2022-09-15T21:08:10.857Z,21.05
2022-09-15T21:10:46.884Z,21.26
2022-09-15T21:13:19.133Z,20.15
2022-09-15T21:15:57.903Z,19.39
2022-09-15T21:18:32.598Z,20.32
2022-09-15T21:21:07.308Z,21.08
2022-09-15T21:23:41.333Z,21.13
2022-09-15T21:26:15.021Z,19.91
2022-09-15T21:28:47.238Z,19.12
2022-09-15T21:31:21.205Z,20.02
2022-09-15T21:33:54.840Z,20.88
2022-09-15T21:36:29.541Z,21.05
2022-09-15T21:39:02.862Z,19.89
2022-09-15T21:41:34.697Z,19.07
2022-09-15T21:44:06.822Z,19.88
2022-09-15T21:46:38.597Z,20.69
2022-09-15T21:49:10.738Z,21.10
2022-09-15T21:51:43.019Z,20.98
2022-09-15T21:54:17.965Z,19.77
2022-09-15T21:56:53.887Z,18.98
2022-09-15T21:59:25.823Z,19.85
2022-09-15T22:01:57.743Z,20.67
2022-09-15T22:04:29.502Z,21.15
2022-09-15T22:07:04.375Z,21.08
2022-09-15T22:09:36.103Z,19.86
2022-09-15T22:12:10.461Z,18.68
2022-09-15T22:14:42.143Z,18.28
2022-09-15T22:17:18.626Z,19.43
2022-09-15T22:19:51.146Z,20.42
2022-09-15T22:22:23.549Z,20.96
2022-09-15T22:24:55.447Z,20.99
2022-09-15T22:27:27.204Z,19.84
2022-09-15T22:29:59.058Z,19.05
2022-09-15T22:32:31.346Z,19.88
2022-09-15T22:35:03.149Z,20.67
2022-09-15T22:37:36.162Z,21.11
2022-09-15T22:40:09.638Z,21.02
2022-09-15T22:42:41.464Z,19.86
2022-09-15T22:45:13.672Z,18.72
2022-09-15T22:47:45.385Z,18.28
2022-09-15T22:50:17.692Z,19.32
2022-09-15T22:52:50.856Z,20.23
2022-09-15T22:55:22.929Z,20.75
2022-09-15T22:57:54.688Z,20.74
2022-09-15T23:00:27.176Z,19.58
2022-09-15T23:02:58.859Z,18.41
2022-09-15T23:05:30.336Z,17.97
2022-09-15T23:08:00.302Z,18.94
2022-09-15T23:10:33.269Z,19.81
2022-09-15T23:13:04.734Z,20.36
2022-09-15T23:15:36.640Z,20.77
2022-09-15T23:18:08.155Z,21.00
2022-09-15T23:20:40.353Z,20.28
2022-09-15T23:23:11.839Z,18.94
2022-09-15T23:25:41.805Z,18.32
2022-09-15T23:28:13.235Z,19.33
2022-09-15T23:30:43.221Z,20.27
2022-09-15T23:33:14.661Z,20.79
2022-09-15T23:35:44.668Z,20.79
2022-09-15T23:38:16.660Z,19.59
2022-09-15T23:40:49.678Z,18.36
2022-09-15T23:43:21.139Z,17.91
2022-09-15T23:45:51.325Z,18.98
2022-09-15T23:48:23.442Z,19.78
2022-09-15T23:50:55.159Z,20.22
2022-09-15T23:53:26.663Z,20.25
2022-09-15T23:55:58.231Z,18.99
2022-09-15T23:58:29.692Z,18.12
